Time;durP1;ratioP1;P1;durP2;ratioP2;P2;SDS_P1;SDS_P2;PMS_P1;PMS_P2;Temp;Humidity;BMP_temperature;BMP_pressure;BME280_temperature;BME280_humidity;BME280_pressure;Samples;Min_cycle;Max_cycle;Signal;HPM_P1;HPM_P2
2023/09/26 00:01:42;;;;;;;12.02;7.35;;;12.70;99.90;;;;;;4930528;29;20130;-87
2023/09/26 00:04:08;;;;;;;10.88;7.43;;;12.70;99.90;;;;;;4943740;28;20054;-87
2023/09/26 00:06:34;;;;;;;14.85;8.23;;;12.70;99.90;;;;;;4937934;29;20476;-88
2023/09/26 00:08:59;;;;;;;11.70;9.25;;;12.70;99.90;;;;;;4936899;29;20074;-87
2023/09/26 00:11:25;;;;;;;13.55;8.27;;;12.70;99.90;;;;;;4931198;29;20499;-87
2023/09/26 00:13:50;;;;;;;12.35;8.82;;;12.70;99.90;;;;;;4937449;29;20064;-87
2023/09/26 00:16:16;;;;;;;13.32;9.15;;;12.70;99.90;;;;;;4925528;29;20151;-87
2023/09/26 00:18:42;;;;;;;14.93;8.70;;;12.70;99.90;;;;;;4946635;28;20030;-87
2023/09/26 00:21:10;;;;;;;13.88;9.80;;;12.70;99.90;;;;;;4937856;29;20047;-87
2023/09/26 00:23:35;;;;;;;11.63;7.75;;;12.70;99.90;;;;;;4932316;29;20115;-87
2023/09/26 00:26:02;;;;;;;9.23;7.03;;;12.70;99.90;;;;;;4933763;29;20552;-88
2023/09/26 00:28:28;;;;;;;9.27;7.28;;;12.70;99.90;;;;;;4952698;28;20391;-88
2023/09/26 00:30:56;;;;;;;9.57;7.38;;;12.70;99.90;;;;;;4933746;29;20046;-88
2023/09/26 00:33:22;;;;;;;9.82;7.10;;;12.60;99.90;;;;;;4935698;29;20369;-88
2023/09/26 00:35:48;;;;;;;10.23;7.35;;;12.60;99.90;;;;;;4949678;29;20027;-87
2023/09/26 00:38:13;;;;;;;8.93;7.15;;;12.60;99.90;;;;;;4936656;29;20027;-87
2023/09/26 00:40:42;;;;;;;10.27;7.20;;;12.50;99.90;;;;;;4934957;29;20035;-88
2023/09/26 00:43:08;;;;;;;11.20;7.97;;;12.50;99.90;;;;;;4929239;29;20040;-87
2023/09/26 00:45:35;;;;;;;12.73;8.27;;;12.50;99.90;;;;;;4935852;29;20396;-87
2023/09/26 00:48:03;;;;;;;11.02;9.00;;;12.50;99.90;;;;;;4935478;28;20499;-87
2023/09/26 00:50:28;;;;;;;12.05;8.93;;;12.50;99.90;;;;;;4936557;29;20424;-87
2023/09/26 00:52:54;;;;;;;15.13;9.80;;;12.50;99.90;;;;;;4936212;29;20027;-87
2023/09/26 00:55:22;;;;;;;12.30;9.75;;;12.50;99.90;;;;;;4934032;28;20027;-87
2023/09/26 00:57:48;;;;;;;15.02;10.38;;;12.50;99.90;;;;;;4935745;29;20030;-87
2023/09/26 01:00:16;;;;;;;10.77;8.98;;;12.40;99.90;;;;;;4937045;29;20034;-87
2023/09/26 01:02:42;;;;;;;12.60;9.18;;;12.40;99.90;;;;;;4933671;29;20087;-87
2023/09/26 01:05:08;;;;;;;12.45;10.13;;;12.40;99.90;;;;;;4927007;29;20032;-87
2023/09/26 01:07:35;;;;;;;13.13;9.98;;;12.40;99.90;;;;;;4933659;29;20476;-87
2023/09/26 01:10:03;;;;;;;14.18;10.45;;;12.40;99.90;;;;;;4945904;29;20094;-87
2023/09/26 01:12:28;;;;;;;15.00;10.38;;;12.40;99.90;;;;;;4952333;28;20472;-87
2023/09/26 01:14:55;;;;;;;18.70;11.07;;;12.40;99.90;;;;;;4935613;28;20063;-87
2023/09/26 01:17:21;;;;;;;14.23;9.55;;;12.40;99.90;;;;;;4931885;29;20393;-87
2023/09/26 01:19:47;;;;;;;12.77;10.60;;;12.40;99.90;;;;;;4929144;29;20031;-87
2023/09/26 01:22:17;;;;;;;14.77;10.63;;;12.40;99.90;;;;;;4943840;28;20972;-87
2023/09/26 01:24:43;;;;;;;17.83;12.20;;;12.50;99.90;;;;;;4935910;29;20036;-86
2023/09/26 01:27:11;;;;;;;15.20;11.98;;;12.50;99.90;;;;;;4935410;29;20031;-86
2023/09/26 01:29:37;;;;;;;18.63;10.93;;;12.50;99.90;;;;;;4933134;29;20480;-86
2023/09/26 01:32:03;;;;;;;16.42;10.73;;;12.50;99.90;;;;;;4935961;29;20043;-86
2023/09/26 01:34:28;;;;;;;17.10;10.68;;;12.50;99.90;;;;;;4934440;29;20225;-87
2023/09/26 01:36:54;;;;;;;13.95;11.43;;;12.60;99.90;;;;;;4934215;29;20043;-87
2023/09/26 01:39:19;;;;;;;13.38;10.85;;;12.60;99.90;;;;;;4935984;28;20046;-86
2023/09/26 01:41:46;;;;;;;14.75;10.82;;;12.60;99.90;;;;;;4935538;29;20050;-86
2023/09/26 01:44:11;;;;;;;13.70;10.63;;;12.60;99.90;;;;;;4935735;29;20119;-86
2023/09/26 01:46:37;;;;;;;13.38;11.35;;;12.70;99.90;;;;;;4935138;29;20772;-86
2023/09/26 01:49:03;;;;;;;14.43;10.25;;;12.70;99.90;;;;;;4951676;29;20544;-86
2023/09/26 01:51:28;;;;;;;13.25;10.18;;;12.70;99.90;;;;;;4947578;28;20128;-86
2023/09/26 01:53:53;;;;;;;14.38;9.80;;;12.80;99.90;;;;;;4949169;28;20045;-87
2023/09/26 01:56:19;;;;;;;13.55;10.05;;;12.80;99.90;;;;;;4951994;28;20043;-86
2023/09/26 01:58:45;;;;;;;12.90;10.40;;;12.90;99.90;;;;;;4946936;28;20028;-87
2023/09/26 02:01:10;;;;;;;14.60;11.65;;;12.90;99.90;;;;;;4950897;28;20325;-86
2023/09/26 02:03:36;;;;;;;13.48;10.38;;;12.90;99.90;;;;;;4934448;29;20039;-87
2023/09/26 02:06:01;;;;;;;12.20;9.65;;;13.00;99.90;;;;;;4938578;28;20492;-86
2023/09/26 02:08:26;;;;;;;12.35;10.00;;;12.90;99.90;;;;;;4927237;29;20046;-87
2023/09/26 02:10:52;;;;;;;15.38;9.93;;;12.90;99.90;;;;;;4935995;29;20741;-87
2023/09/26 02:13:18;;;;;;;18.38;11.60;;;12.90;99.90;;;;;;4948605;28;20144;-87
2023/09/26 02:15:43;;;;;;;12.73;10.20;;;12.90;99.90;;;;;;4933904;29;20034;-87
2023/09/26 02:18:09;;;;;;;14.95;10.93;;;12.90;99.90;;;;;;4935219;29;20130;-87
2023/09/26 02:20:34;;;;;;;11.75;9.82;;;12.90;99.90;;;;;;4934186;29;20042;-87
2023/09/26 02:23:00;;;;;;;13.90;9.85;;;12.90;99.90;;;;;;4934345;29;20028;-86
2023/09/26 02:25:25;;;;;;;15.65;11.90;;;12.90;99.90;;;;;;4928457;28;20070;-87
2023/09/26 02:27:51;;;;;;;12.48;9.90;;;12.90;99.90;;;;;;4925856;29;20023;-86
2023/09/26 02:30:26;;;;;;;13.10;10.77;;;12.90;99.90;;;;;;4929098;29;20036;-87
2023/09/26 02:32:51;;;;;;;17.15;9.98;;;12.90;99.90;;;;;;4934710;29;20032;-86
2023/09/26 02:35:19;;;;;;;14.18;10.35;;;12.80;99.90;;;;;;4931777;29;20448;-86
2023/09/26 02:37:45;;;;;;;16.77;11.75;;;12.80;99.90;;;;;;4934023;29;20518;-86
2023/09/26 02:40:13;;;;;;;30.80;11.87;;;12.80;99.90;;;;;;4933368;29;20027;-86
2023/09/26 02:42:46;;;;;;;16.73;11.15;;;12.80;99.90;;;;;;4941129;29;20272;-86
2023/09/26 02:45:13;;;;;;;14.90;11.27;;;12.80;99.90;;;;;;4940260;29;20027;-87
2023/09/26 02:47:39;;;;;;;22.48;12.50;;;12.80;99.90;;;;;;4933292;29;20066;-87
2023/09/26 02:50:05;;;;;;;13.93;11.40;;;12.80;99.90;;;;;;4933831;29;20032;-86
2023/09/26 02:52:30;;;;;;;15.10;11.85;;;12.80;99.90;;;;;;4929006;29;20028;-87
2023/09/26 02:54:56;;;;;;;14.57;11.93;;;12.80;99.90;;;;;;4942446;28;20032;-87
2023/09/26 02:57:22;;;;;;;18.85;12.75;;;12.70;99.90;;;;;;4933764;29;20031;-87
2023/09/26 02:59:48;;;;;;;15.82;12.57;;;12.70;99.90;;;;;;4934106;29;20028;-87
2023/09/26 03:02:13;;;;;;;15.82;12.27;;;12.70;99.90;;;;;;4933905;29;20047;-87
2023/09/26 03:04:39;;;;;;;15.77;11.38;;;12.70;99.90;;;;;;4933372;29;20420;-86
2023/09/26 03:07:05;;;;;;;13.77;10.95;;;12.70;99.90;;;;;;4933583;28;20503;-87
2023/09/26 03:09:33;;;;;;;14.90;12.35;;;12.70;99.90;;;;;;4934256;28;20111;-87
2023/09/26 03:11:58;;;;;;;15.15;11.80;;;12.70;99.90;;;;;;4929810;29;20028;-87
2023/09/26 03:14:25;;;;;;;14.63;12.05;;;12.70;99.90;;;;;;4933888;29;20072;-86
2023/09/26 03:16:50;;;;;;;15.80;11.75;;;12.70;99.90;;;;;;4933374;29;20071;-87
2023/09/26 03:19:23;;;;;;;17.33;12.10;;;12.60;99.90;;;;;;4933100;29;20516;-87
2023/09/26 03:21:50;;;;;;;16.75;12.55;;;12.60;99.90;;;;;;4933839;29;20049;-87
2023/09/26 03:24:16;;;;;;;16.95;13.05;;;12.70;99.90;;;;;;4934312;29;20032;-86
2023/09/26 03:26:43;;;;;;;15.80;10.77;;;12.60;99.90;;;;;;4934505;29;20143;-85
2023/09/26 03:29:09;;;;;;;16.05;11.73;;;12.60;99.90;;;;;;4934440;28;20539;-87
2023/09/26 03:31:34;;;;;;;16.30;10.93;;;12.50;99.90;;;;;;4949762;28;20055;-87
2023/09/26 03:34:00;;;;;;;15.40;11.75;;;12.50;99.90;;;;;;4932364;29;20030;-87
2023/09/26 03:36:26;;;;;;;16.38;11.50;;;12.40;99.90;;;;;;4944538;28;20444;-87
2023/09/26 03:38:51;;;;;;;18.25;11.68;;;12.40;99.90;;;;;;4949538;28;20030;-87
2023/09/26 03:41:17;;;;;;;12.07;10.15;;;12.40;99.90;;;;;;4934349;29;20051;-86
2023/09/26 03:43:43;;;;;;;14.60;10.52;;;12.30;99.90;;;;;;4930552;29;20027;-86
2023/09/26 03:46:08;;;;;;;20.63;13.43;;;12.30;99.90;;;;;;4922731;29;20472;-87
2023/09/26 03:48:35;;;;;;;17.48;12.70;;;12.20;99.90;;;;;;4944658;28;20439;-86
2023/09/26 03:51:14;;;;;;;14.30;12.40;;;12.20;99.90;;;;;;4952012;28;20114;-87
2023/09/26 03:53:41;;;;;;;17.33;12.05;;;12.20;99.90;;;;;;4933050;29;20479;-87
2023/09/26 03:56:07;;;;;;;16.17;11.77;;;12.10;99.90;;;;;;4924159;29;20487;-87
2023/09/26 03:58:34;;;;;;;14.75;12.20;;;12.10;99.90;;;;;;4934006;29;20031;-87
2023/09/26 04:01:16;;;;;;;15.63;12.35;;;12.00;99.90;;;;;;4943246;28;20027;-87
2023/09/26 04:03:45;;;;;;;18.38;13.80;;;12.00;99.90;;;;;;4931345;29;20032;-87
2023/09/26 04:06:10;;;;;;;16.73;12.93;;;12.00;99.90;;;;;;4928593;29;20028;-88
2023/09/26 04:08:36;;;;;;;18.40;13.13;;;12.00;99.90;;;;;;4932632;29;20047;-88
2023/09/26 04:11:02;;;;;;;20.83;14.20;;;11.90;99.90;;;;;;4927381;29;20057;-87
2023/09/26 04:13:27;;;;;;;16.88;12.35;;;11.90;99.90;;;;;;4943799;28;20160;-87
2023/09/26 04:15:53;;;;;;;20.33;14.45;;;11.90;99.90;;;;;;4946996;28;20526;-88
2023/09/26 04:18:20;;;;;;;22.48;14.60;;;11.90;99.90;;;;;;4932993;29;20091;-88
2023/09/26 04:20:46;;;;;;;20.13;15.23;;;11.90;99.90;;;;;;4933231;28;20054;-87
2023/09/26 04:23:11;;;;;;;19.95;14.43;;;11.90;99.90;;;;;;4944460;28;20023;-88
2023/09/26 04:25:37;;;;;;;19.60;14.32;;;11.80;99.90;;;;;;4926806;29;20499;-88
2023/09/26 04:28:03;;;;;;;21.98;14.95;;;11.80;99.90;;;;;;4932781;29;20035;-87
2023/09/26 04:30:30;;;;;;;18.38;13.68;;;11.80;99.90;;;;;;4947212;28;20035;-88
2023/09/26 04:32:56;;;;;;;17.58;13.40;;;11.80;99.90;;;;;;4936899;29;20031;-88
2023/09/26 04:35:21;;;;;;;17.63;13.40;;;11.70;99.90;;;;;;4951834;28;20083;-88
2023/09/26 04:37:47;;;;;;;20.17;14.82;;;11.70;99.90;;;;;;4935909;29;20023;-87
2023/09/26 04:40:12;;;;;;;17.92;14.38;;;11.70;99.90;;;;;;4936351;29;20032;-87
2023/09/26 04:42:49;;;;;;;17.52;13.45;;;11.70;99.90;;;;;;4945972;28;20123;-87
2023/09/26 04:45:15;;;;;;;17.98;13.57;;;11.70;99.90;;;;;;4951085;29;20042;-87
2023/09/26 04:47:40;;;;;;;19.83;13.75;;;11.60;99.90;;;;;;4934969;29;20099;-87
2023/09/26 04:50:07;;;;;;;21.35;14.77;;;11.70;99.90;;;;;;4934443;29;20087;-88
2023/09/26 04:52:33;;;;;;;18.92;15.05;;;11.70;99.90;;;;;;4933586;29;20071;-88
2023/09/26 04:54:59;;;;;;;15.25;12.77;;;11.60;99.90;;;;;;4930546;29;20329;-88
2023/09/26 04:57:24;;;;;;;19.27;15.05;;;11.60;99.90;;;;;;4951491;29;20020;-88
2023/09/26 04:59:50;;;;;;;17.40;13.65;;;11.60;99.90;;;;;;4934642;29;20028;-87
2023/09/26 05:02:15;;;;;;;18.98;13.50;;;11.60;99.90;;;;;;4937158;29;20404;-88
2023/09/26 05:04:41;;;;;;;20.48;13.77;;;11.60;99.90;;;;;;4935054;29;20151;-88
2023/09/26 05:07:11;;;;;;;18.73;13.60;;;11.60;99.90;;;;;;4955558;28;20090;-88
2023/09/26 05:09:39;;;;;;;15.93;11.60;;;11.60;99.90;;;;;;4938745;28;20139;-87
2023/09/26 05:12:05;;;;;;;17.75;12.07;;;11.50;99.90;;;;;;4933697;29;20468;-86
2023/09/26 05:14:30;;;;;;;17.27;13.20;;;11.50;99.90;;;;;;4935726;29;20023;-87
2023/09/26 05:16:56;;;;;;;15.85;12.57;;;11.50;99.90;;;;;;4935182;28;20062;-88
2023/09/26 05:19:21;;;;;;;21.58;13.70;;;11.50;99.90;;;;;;4936109;29;20030;-88
2023/09/26 05:21:47;;;;;;;19.50;14.63;;;11.50;99.90;;;;;;4938002;29;20103;-87
2023/09/26 05:24:12;;;;;;;21.92;14.82;;;11.50;99.90;;;;;;4934509;29;20635;-88
2023/09/26 05:26:38;;;;;;;18.77;13.65;;;11.50;99.90;;;;;;4941446;28;20183;-88
2023/09/26 05:29:04;;;;;;;20.05;12.93;;;11.60;99.90;;;;;;4934458;28;20031;-88
2023/09/26 05:31:30;;;;;;;19.92;15.05;;;11.50;99.90;;;;;;4933352;29;20032;-88
2023/09/26 05:33:56;;;;;;;18.40;14.10;;;11.60;99.90;;;;;;4928726;29;20055;-87
2023/09/26 05:36:22;;;;;;;17.50;13.88;;;11.60;99.90;;;;;;4946080;29;20035;-87
2023/09/26 05:38:48;;;;;;;21.02;14.95;;;11.60;99.90;;;;;;4939792;29;20030;-87
2023/09/26 05:41:13;;;;;;;19.55;14.40;;;11.60;99.90;;;;;;4941420;28;20052;-87
2023/09/26 05:43:39;;;;;;;20.38;14.27;;;11.60;99.90;;;;;;4937036;29;20419;-87
2023/09/26 05:46:04;;;;;;;19.88;14.38;;;11.60;99.90;;;;;;4940996;28;20027;-88
2023/09/26 05:48:30;;;;;;;21.20;15.10;;;11.60;99.90;;;;;;4941520;29;20023;-87
2023/09/26 05:51:03;;;;;;;18.38;12.95;;;11.60;99.90;;;;;;4934556;29;20082;-86
2023/09/26 05:53:29;;;;;;;19.73;13.40;;;11.70;99.90;;;;;;4930188;28;20034;-87
2023/09/26 05:55:54;;;;;;;19.38;14.30;;;11.60;99.90;;;;;;4934873;28;20492;-87
2023/09/26 05:58:20;;;;;;;17.90;14.20;;;11.70;99.90;;;;;;4951736;29;20034;-87
2023/09/26 06:00:46;;;;;;;18.35;13.75;;;11.70;99.90;;;;;;4934668;29;20042;-86
2023/09/26 06:03:12;;;;;;;19.50;14.77;;;11.70;99.90;;;;;;4932798;29;20035;-88
2023/09/26 06:05:40;;;;;;;18.25;13.52;;;11.80;99.90;;;;;;4926925;28;20028;-87
2023/09/26 06:08:06;;;;;;;18.95;13.80;;;11.80;99.90;;;;;;4944037;28;20039;-87
2023/09/26 06:10:31;;;;;;;19.85;14.27;;;11.90;99.90;;;;;;4932566;29;20122;-88
2023/09/26 06:12:57;;;;;;;20.45;13.95;;;11.90;99.90;;;;;;4934839;29;20032;-88
2023/09/26 06:15:22;;;;;;;17.60;13.13;;;12.00;99.90;;;;;;4935351;29;20364;-88
2023/09/26 06:17:48;;;;;;;18.83;13.75;;;12.00;99.90;;;;;;4934642;29;20048;-88
2023/09/26 06:20:13;;;;;;;20.27;14.15;;;12.10;99.90;;;;;;4933796;28;20094;-87
2023/09/26 06:22:39;;;;;;;17.50;13.75;;;12.20;99.90;;;;;;4935308;29;20063;-87
2023/09/26 06:25:05;;;;;;;22.02;14.93;;;12.20;99.90;;;;;;4935051;29;20028;-87
2023/09/26 06:27:35;;;;;;;19.10;14.27;;;12.30;99.90;;;;;;4945578;28;20044;-88
2023/09/26 06:30:01;;;;;;;15.02;12.57;;;12.30;99.90;;;;;;4924744;29;20487;-87
2023/09/26 06:32:27;;;;;;;19.20;14.55;;;12.40;99.90;;;;;;4929674;29;20063;-87
2023/09/26 06:34:57;;;;;;;19.13;15.55;;;12.50;99.90;;;;;;4924181;29;20026;-86
2023/09/26 06:37:23;;;;;;;19.23;13.55;;;12.60;99.90;;;;;;4931641;29;20122;-87
2023/09/26 06:39:48;;;;;;;18.73;13.63;;;12.70;99.90;;;;;;4949441;29;20457;-86
2023/09/26 06:42:14;;;;;;;20.88;13.70;;;12.80;99.90;;;;;;4933875;29;20051;-87
2023/09/26 06:44:39;;;;;;;20.88;14.15;;;12.80;99.90;;;;;;4935284;29;20024;-88
2023/09/26 06:47:05;;;;;;;18.50;12.88;;;12.90;99.90;;;;;;4928466;29;20028;-86
2023/09/26 06:49:33;;;;;;;18.05;12.43;;;13.00;99.90;;;;;;4942648;28;20032;-86
2023/09/26 06:51:59;;;;;;;17.60;12.65;;;13.00;99.90;;;;;;4933996;29;20032;-86
2023/09/26 06:54:24;;;;;;;18.45;12.75;;;13.10;99.90;;;;;;4949689;28;20550;-87
2023/09/26 06:56:51;;;;;;;17.17;12.82;;;13.20;99.90;;;;;;4934118;29;20046;-87
2023/09/26 06:59:16;;;;;;;17.83;12.98;;;13.30;99.90;;;;;;4932651;29;20072;-87
2023/09/26 07:01:43;;;;;;;14.32;11.30;;;13.40;99.90;;;;;;4931983;29;20074;-87
2023/09/26 07:04:14;;;;;;;19.85;12.32;;;13.50;99.90;;;;;;4950232;28;20020;-88
2023/09/26 07:06:40;;;;;;;17.27;11.52;;;13.70;99.90;;;;;;4934952;29;20123;-88
2023/09/26 07:09:07;;;;;;;14.90;11.65;;;13.80;99.90;;;;;;4938587;29;20519;-87
2023/09/26 07:11:33;;;;;;;17.25;11.68;;;13.90;99.90;;;;;;4928293;29;20034;-87
2023/09/26 07:13:58;;;;;;;12.85;10.90;;;14.00;99.90;;;;;;4932899;29;20028;-87
2023/09/26 07:16:24;;;;;;;17.10;10.95;;;14.10;99.90;;;;;;4933722;29;20497;-88
2023/09/26 07:18:50;;;;;;;12.85;10.93;;;14.10;99.90;;;;;;4934374;29;20099;-89
2023/09/26 07:21:16;;;;;;;15.45;11.18;;;14.20;99.90;;;;;;4934684;28;20035;-89
2023/09/26 07:23:41;;;;;;;12.88;10.23;;;14.30;99.90;;;;;;4939606;28;20051;-89
2023/09/26 07:26:12;;;;;;;15.93;11.38;;;14.40;99.90;;;;;;4929390;29;20395;-88
2023/09/26 07:28:41;;;;;;;16.42;10.70;;;14.50;99.90;;;;;;4938164;28;20507;-89
2023/09/26 07:31:09;;;;;;;12.48;9.77;;;14.60;99.90;;;;;;4928283;29;20060;-89
2023/09/26 07:33:35;;;;;;;13.27;9.77;;;14.60;99.90;;;;;;4929621;29;20116;-89
2023/09/26 07:36:00;;;;;;;13.63;10.20;;;14.70;99.90;;;;;;4928315;29;20169;-89
2023/09/26 07:38:26;;;;;;;12.23;9.20;;;14.80;99.90;;;;;;4929738;29;20027;-88
2023/09/26 07:40:51;;;;;;;13.70;9.57;;;14.90;99.90;;;;;;4937563;28;20047;-88
2023/09/26 07:43:17;;;;;;;13.45;9.90;;;15.00;99.90;;;;;;4934837;29;20027;-88
2023/09/26 07:45:42;;;;;;;11.95;9.15;;;15.10;99.90;;;;;;4947298;28;20032;-88
2023/09/26 07:48:08;;;;;;;14.68;8.75;;;15.20;99.90;;;;;;4933435;29;20096;-89
2023/09/26 07:50:34;;;;;;;10.77;8.20;;;15.30;99.90;;;;;;4940254;28;20035;-89
2023/09/26 07:53:02;;;;;;;14.55;9.32;;;15.40;99.90;;;;;;4933722;29;20026;-89
2023/09/26 07:55:28;;;;;;;13.65;9.38;;;15.50;99.90;;;;;;4933193;29;20068;-88
2023/09/26 07:57:54;;;;;;;11.63;8.85;;;15.60;99.90;;;;;;4933642;29;20046;-89
2023/09/26 08:00:20;;;;;;;10.52;7.22;;;15.70;99.90;;;;;;4933063;29;20118;-88
2023/09/26 08:02:46;;;;;;;11.77;8.20;;;15.70;99.90;;;;;;4949957;29;20044;-87
2023/09/26 08:05:12;;;;;;;10.40;7.90;;;15.90;99.90;;;;;;4952040;28;20115;-88
2023/09/26 08:07:42;;;;;;;11.30;7.35;;;15.90;99.90;;;;;;4938956;29;20043;-88
2023/09/26 08:10:08;;;;;;;12.43;8.18;;;16.00;99.90;;;;;;4939496;29;20019;-89
2023/09/26 08:12:39;;;;;;;10.45;8.27;;;16.00;99.90;;;;;;4937870;29;20547;-89
2023/09/26 08:15:05;;;;;;;10.32;7.95;;;16.10;99.90;;;;;;4937524;29;20020;-88
2023/09/26 08:17:30;;;;;;;11.50;7.60;;;16.20;99.90;;;;;;4938279;29;20131;-87
2023/09/26 08:19:56;;;;;;;10.10;7.60;;;16.20;99.90;;;;;;4937651;29;20023;-88
2023/09/26 08:22:21;;;;;;;10.32;7.32;;;16.30;99.90;;;;;;4937210;29;20039;-88
2023/09/26 08:24:47;;;;;;;9.52;7.32;;;16.40;99.90;;;;;;4936723;29;20024;-88
2023/09/26 08:27:13;;;;;;;11.07;7.63;;;16.40;99.90;;;;;;4936335;28;20027;-89
2023/09/26 08:29:38;;;;;;;10.88;7.40;;;16.50;99.90;;;;;;4937339;29;20067;-88
2023/09/26 08:32:04;;;;;;;13.20;7.80;;;16.60;99.90;;;;;;4950267;28;20028;-88
2023/09/26 08:34:29;;;;;;;9.98;6.95;;;16.70;99.90;;;;;;4934496;29;20052;-87
2023/09/26 08:36:55;;;;;;;9.27;6.78;;;16.80;99.90;;;;;;4950975;29;20500;-88
2023/09/26 08:39:20;;;;;;;7.57;5.85;;;16.90;99.90;;;;;;4953437;29;20025;-88
2023/09/26 08:41:46;;;;;;;7.85;6.68;;;16.90;99.90;;;;;;4952408;29;20457;-88
2023/09/26 08:44:12;;;;;;;9.32;6.93;;;16.90;99.90;;;;;;4931285;29;20031;-88
2023/09/26 08:46:39;;;;;;;7.85;6.53;;;16.90;99.90;;;;;;4941157;29;20107;-88
2023/09/26 08:49:05;;;;;;;9.45;6.18;;;17.00;99.90;;;;;;4933872;29;20477;-88
2023/09/26 08:51:32;;;;;;;9.48;6.30;;;17.10;99.90;;;;;;4948031;29;20032;-88
2023/09/26 08:53:58;;;;;;;9.27;5.88;;;17.30;99.90;;;;;;4947735;28;20075;-88
2023/09/26 08:56:23;;;;;;;9.75;6.53;;;17.40;99.90;;;;;;4925060;29;20043;-88
2023/09/26 08:58:50;;;;;;;10.30;6.15;;;17.50;99.90;;;;;;4936458;29;20024;-88
2023/09/26 09:01:18;;;;;;;7.15;5.70;;;17.60;99.90;;;;;;4936384;29;20508;-89
2023/09/26 09:03:43;;;;;;;9.45;5.55;;;17.70;99.90;;;;;;4946108;28;20020;-88
2023/09/26 09:06:09;;;;;;;7.55;5.80;;;17.90;99.90;;;;;;4940006;29;20035;-88
2023/09/26 09:08:34;;;;;;;8.52;5.53;;;18.00;99.90;;;;;;4936907;29;20075;-88
2023/09/26 09:11:00;;;;;;;10.20;6.43;;;18.10;99.90;;;;;;4936030;29;20028;-88
2023/09/26 09:13:29;;;;;;;8.55;5.13;;;18.10;99.90;;;;;;4945021;29;20393;-88
2023/09/26 09:16:11;;;;;;;8.40;6.00;;;18.20;99.90;;;;;;4949531;28;20020;-88
2023/09/26 09:18:41;;;;;;;7.45;5.68;;;18.30;99.90;;;;;;4936289;29;20038;-88
2023/09/26 09:21:32;;;;;;;7.35;5.60;;;18.40;99.90;;;;;;4936367;29;20444;-88
2023/09/26 09:24:00;;;;;;;5.95;4.95;;;18.50;99.90;;;;;;4936346;29;20492;-89
2023/09/26 09:26:31;;;;;;;7.25;5.63;;;18.60;99.90;;;;;;4951738;28;20391;-88
2023/09/26 09:28:59;;;;;;;7.35;5.40;;;18.70;99.90;;;;;;4936295;29;20460;-88
2023/09/26 09:31:26;;;;;;;8.18;5.93;;;18.80;99.90;;;;;;4936457;29;20028;-89
2023/09/26 09:33:52;;;;;;;8.68;5.88;;;19.00;99.90;;;;;;4936084;29;20059;-87
2023/09/26 09:36:19;;;;;;;9.10;6.13;;;19.10;99.90;;;;;;4936082;29;20031;-87
2023/09/26 09:38:44;;;;;;;9.40;5.82;;;19.40;99.90;;;;;;4936020;29;20051;-88
2023/09/26 09:41:10;;;;;;;7.45;5.60;;;19.50;99.90;;;;;;4935674;29;20078;-88
2023/09/26 09:43:37;;;;;;;7.72;5.75;;;19.60;99.90;;;;;;4934081;28;20423;-88
2023/09/26 09:46:10;;;;;;;9.77;6.45;;;19.70;99.90;;;;;;4936991;29;20040;-88
2023/09/26 09:48:43;;;;;;;7.28;5.85;;;19.80;99.90;;;;;;4944136;28;20136;-88
2023/09/26 09:51:11;;;;;;;6.43;5.68;;;19.90;99.90;;;;;;4952287;28;20038;-87
2023/09/26 09:53:40;;;;;;;9.25;6.53;;;19.90;99.90;;;;;;4961585;28;20036;-87
2023/09/26 09:56:07;;;;;;;9.07;5.97;;;20.00;99.90;;;;;;4927266;29;20107;-87
2023/09/26 09:58:36;;;;;;;7.18;5.53;;;20.10;99.90;;;;;;4934088;29;20035;-87
2023/09/26 10:01:03;;;;;;;11.00;6.25;;;20.20;99.90;;;;;;4934874;29;20042;-87
2023/09/26 10:03:29;;;;;;;11.23;6.55;;;20.30;99.90;;;;;;4933819;29;20035;-88
2023/09/26 10:05:55;;;;;;;7.93;5.75;;;20.40;99.90;;;;;;4933664;29;20404;-88
2023/09/26 10:08:22;;;;;;;9.93;6.00;;;20.60;99.90;;;;;;4939482;29;20028;-88
2023/09/26 10:10:48;;;;;;;9.23;6.10;;;20.60;99.90;;;;;;4933134;28;21803;-88
2023/09/26 10:13:15;;;;;;;7.88;5.82;;;20.80;99.90;;;;;;4935195;29;20024;-88
2023/09/26 10:16:14;;;;;;;8.02;5.68;;;20.90;99.90;;;;;;4935227;29;20036;-87
2023/09/26 10:18:41;;;;;;;7.80;5.40;;;20.90;99.90;;;;;;4927004;29;20091;-87
2023/09/26 10:21:24;;;;;;;8.15;6.35;;;20.90;99.90;;;;;;4934107;28;20028;-87
2023/09/26 10:24:07;;;;;;;10.45;6.18;;;21.00;99.90;;;;;;4925845;29;20397;-87
2023/09/26 10:26:36;;;;;;;8.95;6.72;;;21.00;99.90;;;;;;4932362;29;20035;-87
2023/09/26 10:29:17;;;;;;;9.32;6.70;;;21.00;99.90;;;;;;4934495;28;20119;-87
2023/09/26 10:31:53;;;;;;;10.32;6.30;;;21.10;99.90;;;;;;4934265;29;20477;-87
2023/09/26 10:34:30;;;;;;;8.20;5.63;;;21.20;99.90;;;;;;4950983;29;20556;-87
2023/09/26 10:36:56;;;;;;;9.15;6.47;;;21.30;99.90;;;;;;4932995;29;20035;-88
2023/09/26 10:39:39;;;;;;;8.18;6.60;;;21.30;99.90;;;;;;4935040;29;20489;-86
2023/09/26 10:42:10;;;;;;;9.80;6.20;;;21.40;99.90;;;;;;4928881;29;20130;-87
2023/09/26 10:44:37;;;;;;;9.70;7.40;;;21.60;99.90;;;;;;4926480;29;20028;-87
2023/09/26 10:47:04;;;;;;;8.70;6.60;;;21.60;99.90;;;;;;4955341;28;20039;-87
2023/09/26 10:49:33;;;;;;;7.43;6.05;;;21.50;99.90;;;;;;4925936;29;20027;-86
2023/09/26 10:52:01;;;;;;;10.32;6.00;;;21.60;99.90;;;;;;4926816;29;20039;-86
2023/09/26 10:54:27;;;;;;;6.80;5.22;;;21.60;99.90;;;;;;4924159;29;20500;-82
2023/09/26 10:56:53;;;;;;;7.85;5.32;;;21.70;99.90;;;;;;4921820;29;20063;-82
2023/09/26 10:59:19;;;;;;;8.93;5.18;;;21.60;99.90;;;;;;4922601;29;20146;-83
2023/09/26 11:01:47;;;;;;;6.68;5.82;;;21.60;99.90;;;;;;4919707;28;20040;-83
2023/09/26 11:04:13;;;;;;;7.38;5.63;;;21.70;99.90;;;;;;4925166;29;20027;-83
2023/09/26 11:06:39;;;;;;;11.07;5.63;;;21.80;99.90;;;;;;4927862;29;20032;-83
2023/09/26 11:09:05;;;;;;;9.10;4.85;;;21.90;99.90;;;;;;4926520;29;20047;-82
2023/09/26 11:11:30;;;;;;;7.40;4.65;;;22.00;99.90;;;;;;4938835;28;20068;-83
2023/09/26 11:13:56;;;;;;;6.45;5.35;;;22.20;99.90;;;;;;4924631;29;20024;-83
2023/09/26 11:16:21;;;;;;;6.75;5.57;;;22.30;99.90;;;;;;4927552;29;20040;-82
2023/09/26 11:18:54;;;;;;;9.82;4.97;;;22.40;99.90;;;;;;4929540;29;20095;-84
2023/09/26 11:21:20;;;;;;;10.50;5.43;;;22.50;99.90;;;;;;4930054;29;20024;-84
2023/09/26 11:23:45;;;;;;;7.43;5.15;;;22.50;99.90;;;;;;4945669;28;20034;-84
2023/09/26 11:26:11;;;;;;;8.48;5.30;;;22.50;99.90;;;;;;4935330;29;20032;-85
2023/09/26 11:28:38;;;;;;;5.78;4.32;;;22.50;99.90;;;;;;4932062;28;20027;-85
2023/09/26 11:31:05;;;;;;;6.10;4.05;;;22.60;99.90;;;;;;4923567;29;20042;-85
2023/09/26 11:33:31;;;;;;;7.57;4.93;;;22.60;99.90;;;;;;4932211;29;20054;-85
2023/09/26 11:35:57;;;;;;;6.18;4.40;;;22.70;99.90;;;;;;4947450;28;20090;-85
2023/09/26 11:38:22;;;;;;;8.18;4.70;;;22.70;99.90;;;;;;4919595;29;20447;-86
2023/09/26 11:40:48;;;;;;;7.05;4.93;;;22.70;99.90;;;;;;4954278;28;20028;-84
2023/09/26 11:43:14;;;;;;;6.15;4.47;;;22.60;99.90;;;;;;4933372;29;20062;-84
2023/09/26 11:45:39;;;;;;;6.43;4.32;;;22.50;99.90;;;;;;4930478;29;20073;-84
2023/09/26 11:48:06;;;;;;;8.15;4.82;;;22.60;99.90;;;;;;4942347;28;20070;-84
2023/09/26 11:50:32;;;;;;;7.72;4.93;;;22.60;99.90;;;;;;4920796;29;20028;-84
2023/09/26 11:53:01;;;;;;;6.05;3.95;;;22.70;99.90;;;;;;4934067;28;20071;-84
2023/09/26 11:55:29;;;;;;;6.13;4.25;;;22.80;99.90;;;;;;4937129;29;20043;-84
2023/09/26 11:57:54;;;;;;;9.30;4.40;;;22.80;99.90;;;;;;4925782;29;20396;-84
2023/09/26 12:00:21;;;;;;;7.07;3.30;;;22.90;99.90;;;;;;4930382;29;20015;-84
2023/09/26 12:02:50;;;;;;;4.15;3.30;;;23.00;99.90;;;;;;4927660;29;20044;-85
2023/09/26 12:05:20;;;;;;;5.55;3.83;;;23.10;99.90;;;;;;4927819;29;20024;-84
2023/09/26 12:07:47;;;;;;;6.88;3.50;;;23.10;99.90;;;;;;4927280;29;20476;-86
2023/09/26 12:10:13;;;;;;;7.70;4.10;;;23.10;99.90;;;;;;4932018;29;20063;-86
2023/09/26 12:12:38;;;;;;;4.65;2.47;;;23.30;99.90;;;;;;4931425;28;20139;-85
2023/09/26 12:15:21;;;;;;;7.50;3.65;;;23.40;99.90;;;;;;4919891;29;20059;-85
2023/09/26 12:17:54;;;;;;;5.30;3.42;;;23.50;99.90;;;;;;4923812;29;20043;-85
2023/09/26 12:20:24;;;;;;;5.50;3.90;;;23.60;99.90;;;;;;4932337;29;20086;-86
2023/09/26 12:22:50;;;;;;;4.88;3.78;;;23.60;99.90;;;;;;4930991;29;20036;-85
2023/09/26 12:25:17;;;;;;;5.50;3.78;;;23.70;99.90;;;;;;4932648;29;20051;-85
2023/09/26 12:27:44;;;;;;;5.03;3.45;;;23.80;99.90;;;;;;4927694;29;20030;-84
2023/09/26 12:30:10;;;;;;;7.47;3.88;;;23.80;99.90;;;;;;4930412;29;20559;-85
2023/09/26 12:32:36;;;;;;;5.93;3.50;;;23.80;99.90;;;;;;4927465;29;20028;-86
2023/09/26 12:35:01;;;;;;;7.35;3.72;;;23.70;99.90;;;;;;4932413;29;20079;-85